AEE284 LGAV-LGKR
Flight info
| Callsign | AEE284 |
|---|---|
| Flight time | N/A |
| Altitude | 28000 |
| Route | KOR UL53 PARNA |
| Aircraft | A320/M-SDE3FGHIRWY/LB1 |
Departure
| Time | 2026-05-07 10:10 |
|---|---|
| Airport | Athens Eleftherios Venizelos International Airport (LGAV) |
Arrival
| Time | N/A |
|---|---|
| Airport | Corfu Ioannis Kapodistrias International Airport (LGKR) |
| Time | Latitude | Longitude | Altitude | Speed | Heading |
|---|---|---|---|---|---|
| 2026-05-07 09:33 | 37.93912 | 23.95121 | 302 ft | 0 kts | 308° |
| 2026-05-07 09:58 | 37.93907 | 23.95129 | 301 ft | 4 kts | 308° |
| 2026-05-07 09:59 | 37.93890 | 23.95155 | 301 ft | 4 kts | 312° |
| 2026-05-07 09:59 | 37.93871 | 23.95179 | 300 ft | 4 kts | 323° |
| 2026-05-07 09:59 | 37.93849 | 23.95193 | 300 ft | 4 kts | 12° |
| 2026-05-07 09:59 | 37.93841 | 23.95191 | 302 ft | 0 kts | 36° |
| 2026-05-07 10:02 | 37.93842 | 23.95191 | 300 ft | 1 kts | 36° |
| 2026-05-07 10:02 | 37.93850 | 23.95202 | 303 ft | 3 kts | 50° |
| 2026-05-07 10:02 | 37.93866 | 23.95249 | 302 ft | 7 kts | 68° |
| 2026-05-07 10:03 | 37.93887 | 23.95322 | 300 ft | 10 kts | 73° |
| 2026-05-07 10:03 | 37.93858 | 23.95409 | 301 ft | 11 kts | 126° |
| 2026-05-07 10:03 | 37.93884 | 23.95504 | 297 ft | 15 kts | 36° |
| 2026-05-07 10:03 | 37.93973 | 23.95586 | 298 ft | 17 kts | 36° |
| 2026-05-07 10:04 | 37.94072 | 23.95681 | 299 ft | 18 kts | 37° |
| 2026-05-07 10:04 | 37.94179 | 23.95783 | 298 ft | 20 kts | 37° |
| 2026-05-07 10:04 | 37.94297 | 23.95895 | 300 ft | 22 kts | 37° |
| 2026-05-07 10:04 | 37.94425 | 23.96017 | 301 ft | 24 kts | 37° |
| 2026-05-07 10:05 | 37.94526 | 23.96112 | 301 ft | 17 kts | 37° |
| 2026-05-07 10:05 | 37.94627 | 23.96208 | 301 ft | 19 kts | 37° |
| 2026-05-07 10:05 | 37.94739 | 23.96314 | 299 ft | 21 kts | 37° |
| 2026-05-07 10:05 | 37.94860 | 23.96429 | 301 ft | 22 kts | 37° |
| 2026-05-07 10:06 | 37.94988 | 23.96551 | 303 ft | 24 kts | 37° |
| 2026-05-07 10:06 | 37.95111 | 23.96670 | 302 ft | 21 kts | 38° |
| 2026-05-07 10:06 | 37.95232 | 23.96785 | 303 ft | 21 kts | 36° |
| 2026-05-07 10:06 | 37.95299 | 23.96857 | 306 ft | 9 kts | 68° |
| 2026-05-07 10:07 | 37.95278 | 23.96929 | 306 ft | 6 kts | 126° |
| 2026-05-07 10:07 | 37.95273 | 23.96938 | 306 ft | 0 kts | 126° |
| 2026-05-07 10:08 | 37.95271 | 23.96942 | 306 ft | 2 kts | 126° |
| 2026-05-07 10:08 | 37.95254 | 23.96971 | 307 ft | 6 kts | 126° |
| 2026-05-07 10:08 | 37.95226 | 23.97020 | 310 ft | 7 kts | 127° |
| 2026-05-07 10:08 | 37.95195 | 23.97027 | 310 ft | 5 kts | 216° |
| 2026-05-07 10:09 | 37.95149 | 23.96983 | 311 ft | 21 kts | 217° |
| 2026-05-07 10:09 | 37.94828 | 23.96678 | 304 ft | 92 kts | 217° |
| 2026-05-07 10:09 | 37.94157 | 23.96042 | 287 ft | 145 kts | 217° |
| 2026-05-07 10:09 | 37.93238 | 23.95209 | 500 ft | 166 kts | 211° |
| 2026-05-07 10:10 | 37.92258 | 23.94482 | 1214 ft | 162 kts | 207° |
| 2026-05-07 10:10 | 37.91268 | 23.93810 | 1908 ft | 161 kts | 207° |
| 2026-05-07 10:10 | 37.90241 | 23.93119 | 2354 ft | 176 kts | 207° |
| 2026-05-07 10:10 | 37.89103 | 23.92349 | 2686 ft | 199 kts | 208° |
| 2026-05-07 10:11 | 37.87793 | 23.91459 | 2993 ft | 223 kts | 208° |
| 2026-05-07 10:11 | 37.86381 | 23.90498 | 3545 ft | 240 kts | 207° |
| 2026-05-07 10:11 | 37.84897 | 23.89487 | 4478 ft | 244 kts | 208° |
| 2026-05-07 10:11 | 37.83393 | 23.88460 | 5382 ft | 247 kts | 208° |
| 2026-05-07 10:12 | 37.81867 | 23.87418 | 6270 ft | 251 kts | 208° |
| 2026-05-07 10:12 | 37.80313 | 23.86356 | 7150 ft | 256 kts | 209° |
| 2026-05-07 10:12 | 37.78732 | 23.85273 | 7989 ft | 260 kts | 209° |
| 2026-05-07 10:12 | 37.77165 | 23.84046 | 8570 ft | 273 kts | 224° |
| 2026-05-07 10:13 | 37.76066 | 23.82069 | 9200 ft | 281 kts | 250° |
| 2026-05-07 10:13 | 37.75789 | 23.79637 | 9964 ft | 284 kts | 277° |
| 2026-05-07 10:13 | 37.76210 | 23.77157 | 10455 ft | 298 kts | 284° |
| 2026-05-07 10:13 | 37.76748 | 23.74513 | 10679 ft | 322 kts | 285° |
| 2026-05-07 10:14 | 37.77342 | 23.71683 | 10879 ft | 342 kts | 285° |
| 2026-05-07 10:14 | 37.77960 | 23.68734 | 11421 ft | 350 kts | 285° |
| 2026-05-07 10:14 | 37.78579 | 23.65745 | 12101 ft | 353 kts | 285° |
| 2026-05-07 10:14 | 37.79200 | 23.62728 | 12806 ft | 356 kts | 285° |
| 2026-05-07 10:15 | 37.79814 | 23.59727 | 13510 ft | 358 kts | 284° |
| 2026-05-07 10:15 | 37.80436 | 23.56666 | 14181 ft | 360 kts | 284° |
| 2026-05-07 10:15 | 37.81060 | 23.53585 | 14776 ft | 363 kts | 284° |
| 2026-05-07 10:15 | 37.81689 | 23.50478 | 15354 ft | 366 kts | 284° |
| 2026-05-07 10:16 | 37.82320 | 23.47348 | 15932 ft | 368 kts | 284° |
| 2026-05-07 10:16 | 37.82953 | 23.44196 | 16502 ft | 371 kts | 284° |
| 2026-05-07 10:16 | 37.83591 | 23.41020 | 17083 ft | 374 kts | 284° |
| 2026-05-07 10:16 | 37.84237 | 23.37819 | 17660 ft | 377 kts | 284° |
| 2026-05-07 10:17 | 37.84890 | 23.34588 | 18236 ft | 380 kts | 284° |
| 2026-05-07 10:17 | 37.85538 | 23.31377 | 18752 ft | 383 kts | 284° |
| 2026-05-07 10:17 | 37.86197 | 23.28092 | 19272 ft | 386 kts | 284° |
| 2026-05-07 10:17 | 37.86858 | 23.24788 | 19800 ft | 388 kts | 284° |
| 2026-05-07 10:18 | 37.87522 | 23.21462 | 20341 ft | 391 kts | 284° |
| 2026-05-07 10:18 | 37.88188 | 23.18116 | 20845 ft | 393 kts | 284° |
| 2026-05-07 10:18 | 37.88857 | 23.14757 | 21334 ft | 395 kts | 284° |
| 2026-05-07 10:18 | 37.89531 | 23.11368 | 21815 ft | 398 kts | 284° |
| 2026-05-07 10:19 | 37.90204 | 23.07966 | 22292 ft | 400 kts | 284° |
| 2026-05-07 10:19 | 37.90883 | 23.04540 | 22761 ft | 402 kts | 284° |
| 2026-05-07 10:19 | 37.91564 | 23.01097 | 23230 ft | 404 kts | 284° |
| 2026-05-07 10:19 | 37.92248 | 22.97638 | 23690 ft | 406 kts | 284° |
| 2026-05-07 10:20 | 37.93113 | 22.94221 | 24063 ft | 409 kts | 292° |
| 2026-05-07 10:20 | 37.94449 | 22.91035 | 24456 ft | 412 kts | 302° |
| 2026-05-07 10:20 | 37.96091 | 22.88056 | 24837 ft | 414 kts | 304° |
| 2026-05-07 10:20 | 37.97753 | 22.85062 | 25209 ft | 415 kts | 303° |
| 2026-05-07 10:21 | 37.99414 | 22.82058 | 25581 ft | 417 kts | 303° |
| 2026-05-07 10:21 | 38.01078 | 22.79033 | 25948 ft | 419 kts | 303° |
| 2026-05-07 10:21 | 38.02745 | 22.75993 | 26322 ft | 421 kts | 303° |
| 2026-05-07 10:21 | 38.04420 | 22.72930 | 26694 ft | 423 kts | 303° |
| 2026-05-07 10:22 | 38.06103 | 22.69856 | 27055 ft | 425 kts | 303° |
| 2026-05-07 10:22 | 38.07796 | 22.66762 | 27410 ft | 427 kts | 303° |
| 2026-05-07 10:22 | 38.09474 | 22.63700 | 27756 ft | 429 kts | 303° |
| 2026-05-07 10:22 | 38.11176 | 22.60587 | 28064 ft | 430 kts | 303° |
| 2026-05-07 10:23 | 38.12887 | 22.57462 | 28125 ft | 430 kts | 303° |
| 2026-05-07 10:23 | 38.16305 | 22.51215 | 28124 ft | 431 kts | 303° |
| 2026-05-07 10:24 | 38.19720 | 22.44953 | 28126 ft | 431 kts | 303° |
| 2026-05-07 10:24 | 38.23124 | 22.38686 | 28133 ft | 430 kts | 303° |
| 2026-05-07 10:25 | 38.26525 | 22.32413 | 28129 ft | 430 kts | 303° |
| 2026-05-07 10:25 | 38.29924 | 22.26145 | 28133 ft | 430 kts | 303° |
| 2026-05-07 10:26 | 38.33317 | 22.19869 | 28131 ft | 430 kts | 303° |
| 2026-05-07 10:26 | 38.36692 | 22.13616 | 28127 ft | 430 kts | 303° |
| 2026-05-07 10:27 | 38.40074 | 22.07327 | 28128 ft | 430 kts | 303° |
| 2026-05-07 10:27 | 38.43454 | 22.01037 | 28125 ft | 430 kts | 303° |
| 2026-05-07 10:28 | 38.46837 | 21.94743 | 28127 ft | 430 kts | 303° |
| 2026-05-07 10:28 | 38.50206 | 21.88457 | 28135 ft | 430 kts | 303° |
| 2026-05-07 10:29 | 38.53569 | 21.82161 | 28130 ft | 429 kts | 303° |
| 2026-05-07 10:29 | 38.56925 | 21.75858 | 28128 ft | 429 kts | 303° |
| 2026-05-07 10:30 | 38.61962 | 21.66383 | 28128 ft | 429 kts | 303° |
| 2026-05-07 10:30 | 39.60937 | 19.91251 | 28149 ft | 132 kts | 79° |